Latest Weather Observations for Nambour

IDQ60901

Issued at 11:01 pm EST Tuesday 22 August 2017 (issued every 10 minutes, with the page automatically refreshed every 10 minutes)

About weather observations | Map of Brisbane area stations | Latest observations for Brisbane area | Other Formats
Station Details ID: 040988 Name: NAMBOUR DAFF - HILLSIDE Lat: -26.64 Lon: 152.94 Height: 53.24 m
Data from the previous 72 hours. | See also: Recent months at Nambour
Date/Time
EST
Temp
°C
App
Temp
°C
Dew
Point
°C
Rel
Hum
%
Delta-T
°C
Wind Press
QNH
hPa
Press
MSL
hPa
Rain since
9am
mm
Dir  Spd
km/h
Gust
km/h
Spd
kts
Gust
kts
22/11:00pm 17.4 17.7 13.3 77 2.3 NE 4 6 2 3 1019.4 1019.4 0.0
22/10:30pm 17.6 17.9 13.3 76 2.4 NE 4 6 2 3 1019.5 1019.5 0.0
22/10:00pm 17.7 18.3 14.2 80 2.0 ENE 4 7 2 4 1019.6 1019.6 0.0
22/09:30pm 17.0 18.4 14.3 84 1.5 CALM 0 0 0 0 1019.4 1019.4 0.0
22/09:00pm 17.3 19.0 15.3 88 1.2 CALM 0 0 0 0 1019.3 1019.3 0.0
22/08:30pm 16.6 18.0 14.4 87 1.3 CALM 0 0 0 0 1019.2 1019.2 0.0
22/08:00pm 16.9 18.2 14.0 83 1.6 CALM 0 0 0 0 1019.0 1019.0 0.0
22/07:30pm 18.3 19.1 14.8 80 2.0 WNW 4 6 2 3 1018.7 1018.7 0.0
22/07:00pm 18.8 19.9 14.5 76 2.5 WNW 2 4 1 2 1018.3 1018.3 0.0
22/06:30pm 19.6 20.3 14.6 73 2.9 N 4 6 2 3 1018.0 1018.0 0.0
22/06:00pm 20.2 20.4 14.3 69 3.4 NNE 6 9 3 5 1017.6 1017.6 0.0
22/05:30pm 20.9 21.0 13.8 64 4.1 NNE 6 11 3 6 1017.3 1017.2 0.0
22/05:00pm 21.9 22.0 13.8 60 4.7 NNE 6 11 3 6 1016.9 1016.8 0.0
22/04:30pm 22.4 22.4 13.7 58 5.1 NE 6 9 3 5 1016.6 1016.5 0.0
22/04:00pm 22.7 22.5 13.5 56 5.3 ENE 7 11 4 6 1016.3 1016.2 0.0
22/03:30pm 23.9 22.7 12.8 49 6.4 NE 11 20 6 11 1016.0 1015.9 0.0
22/03:00pm 25.4 23.9 11.9 43 7.7 NNE 11 22 6 12 1015.8 1015.7 0.0
22/02:30pm 26.2 23.9 7.3 30 10.0 N 9 19 5 10 1015.6 1015.5 0.0
22/02:00pm 25.7 23.8 9.1 35 9.1 NE 9 17 5 9 1015.9 1015.8 0.0
22/01:30pm 25.1 22.8 9.0 36 8.7 NNE 11 17 6 9 1016.4 1016.3 0.0
22/01:00pm 25.1 23.8 9.8 38 8.4 NNW 7 13 4 7 1016.8 1016.7 0.0
22/12:30pm 24.6 23.2 10.8 42 7.7 N 9 19 5 10 1017.4 1017.4 0.0
22/12:00pm 24.1 22.2 10.4 42 7.6 N 11 17 6 9 1018.0 1018.0 0.0
22/11:30am 24.4 22.9 12.0 46 7.1 NW 11 20 6 11 1018.6 1018.6 0.0
22/11:00am 22.4 20.0 11.5 50 6.1 NNW 15 30 8 16 1019.3 1019.3 0.0
22/10:30am 21.7 19.4 11.7 53 5.6 NNW 15 28 8 15 1019.8 1019.8 0.0
22/10:00am 21.5 19.8 12.4 56 5.1 NW 13 20 7 11 1020.0 1020.0 0.0
22/09:30am 20.3 17.8 12.3 60 4.5 NNW 17 26 9 14 1020.3 1020.3 0.0
22/09:00am 20.1 19.0 12.1 60 4.5 N 9 24 5 13 1020.2 1020.2 0.4
22/08:30am 19.1 18.5 12.4 65 3.7 N 7 11 4 6 1020.3 1020.3 0.4
22/08:00am 18.1 18.9 12.5 70 3.1 CALM 0 4 0 2 1020.3 1020.3 0.4
22/07:30am 15.4 16.7 14.1 92 0.7 CALM 0 0 0 0 1020.3 1020.3 0.4
22/07:00am 13.5 14.2 12.2 92 0.7 CALM 0 0 0 0 1019.8 1019.8 0.4
22/06:30am 12.9 13.5 11.8 93 0.6 CALM 0 0 0 0 1019.7 1019.7 0.2
22/06:00am 12.8 13.3 11.7 93 0.6 CALM 0 0 0 0 1019.4 1019.4 0.2
22/05:30am 12.9 13.5 11.8 93 0.6 CALM 0 0 0 0 1019.2 1019.2 0.2
22/05:00am 13.1 13.7 12.0 93 0.6 CALM 0 0 0 0 1019.0 1019.0 0.2
22/04:30am 13.4 14.1 12.3 93 0.6 CALM 0 0 0 0 1019.0 1019.0 0.2
22/04:00am 13.3 13.7 11.2 87 1.1 CALM 0 0 0 0 1018.9 1018.9 0.0
22/03:30am 14.2 14.0 11.7 85 1.3 WNW 4 7 2 4 1018.7 1018.7 0.0
22/03:00am 13.4 13.9 11.5 88 1.0 CALM 0 0 0 0 1018.9 1018.9 0.0
22/02:30am 13.5 13.7 10.5 82 1.6 CALM 0 4 0 2 1018.9 1018.9 0.0
22/02:00am 13.9 13.8 12.1 89 1.0 NNW 4 7 2 4 1018.9 1018.9 0.0
22/01:30am 12.7 13.0 10.9 89 0.9 CALM 0 0 0 0 1019.3 1019.3 0.0
22/01:00am 13.1 13.6 11.7 91 0.7 CALM 0 0 0 0 1019.5 1019.5 0.0
22/12:30am 13.2 13.7 11.6 90 0.9 CALM 0 0 0 0 1019.8 1019.8 0.0
22/12:00am 12.9 13.1 10.6 86 1.2 CALM 0 0 0 0 1019.7 1019.7 0.0
 
Date/Time
EST
Temp
°C
App
Temp
°C
Dew
Point
°C
Rel
Hum
%
Delta-T
°C
Wind Press
QNH
hPa
Press
MSL
hPa
Rain since
9am
mm
Dir  Spd
km/h
Gust
km/h
Spd
kts
Gust
kts
21/11:30pm 13.7 13.9 11.8 88 1.0 WSW 2 6 1 3 1019.8 1019.8 0.0
21/11:00pm 13.2 13.4 10.7 85 1.3 CALM 0 0 0 0 1019.5 1019.5 0.0
21/10:30pm 13.2 13.4 10.6 84 1.4 CALM 0 0 0 0 1019.7 1019.7 0.0
21/10:00pm 13.7 14.0 11.0 84 1.4 CALM 0 0 0 0 1019.7 1019.7 0.0
21/09:30pm 14.0 14.2 10.6 80 1.8 CALM 0 0 0 0 1019.6 1019.6 0.0
21/09:00pm 14.2 14.5 11.0 81 1.7 CALM 0 0 0 0 1019.3 1019.3 0.0
21/08:30pm 14.7 14.9 10.7 77 2.1 CALM 0 0 0 0 1019.8 1019.8 0.0
21/08:00pm 15.0 15.1 11.4 79 1.9 ESE 2 2 1 1 1019.3 1019.3 0.0
21/07:30pm 14.9 15.1 10.7 76 2.2 CALM 0 4 0 2 1019.5 1019.5 0.0
21/07:00pm 14.9 15.1 10.5 75 2.3 CALM 0 0 0 0 1018.8 1018.8 0.0
21/06:30pm 16.3 16.6 11.0 71 2.8 CALM 0 2 0 1 1018.9 1018.9 0.0
21/06:00pm 16.9 17.1 10.7 67 3.3 CALM 0 2 0 1 1018.8 1018.8 0.0
21/05:30pm 17.5 17.0 10.6 64 3.7 NNE 4 9 2 5 1018.7 1018.7 0.0
21/05:00pm 18.1 16.9 10.2 60 4.2 NNE 7 13 4 7 1018.8 1018.8 0.0
21/04:30pm 18.8 17.1 9.8 56 4.8 NE 9 13 5 7 1018.6 1018.6 0.0
21/04:00pm 18.7 16.6 9.8 56 4.7 ENE 11 19 6 10 1018.5 1018.5 0.0
21/03:30pm 19.4 17.4 10.1 55 5.0 E 11 17 6 9 1018.5 1018.5 0.0
21/03:00pm 19.6 17.6 10.0 54 5.1 E 11 15 6 8 1018.6 1018.6 0.0
21/02:30pm 19.6 17.6 10.0 54 5.2 E 11 19 6 10 1019.1 1019.1 0.0
21/02:00pm 19.9 18.6 9.8 52 5.4 ESE 7 15 4 8 1019.2 1019.2 0.0
21/01:30pm 20.3 19.0 10.1 52 5.5 SE 7 13 4 7 1019.6 1019.6 0.0
21/01:00pm 20.7 19.3 7.3 42 6.9 ENE 4 9 2 5 1019.9 1019.9 0.0
21/12:30pm 20.3 17.7 6.3 40 7.0 E 9 17 5 9 1020.2 1020.2 0.0
21/12:00pm 20.9 18.6 7.5 42 6.9 E 9 17 5 9 1020.7 1020.7 0.0
21/11:30am 20.3 18.6 8.3 46 6.3 S 7 15 4 8 1021.2 1021.2 0.0
21/11:00am 20.1 18.6 9.1 49 5.8 ESE 7 13 4 7 1021.5 1021.5 0.0
21/10:30am 19.2 17.7 8.5 50 5.6 ESE 6 13 3 7 1022.1 1022.1 0.0
21/10:00am 18.5 16.5 8.5 52 5.2 S 9 17 5 9 1022.4 1022.4 0.0
21/09:30am 18.6 16.5 8.3 51 5.3 SE 9 19 5 10 1022.4 1022.4 0.0
21/09:00am 17.3 16.1 8.2 55 4.6 S 4 9 2 5 1022.4 1022.4 0.0
21/08:30am 16.4 15.2 7.9 57 4.3 S 4 11 2 6 1022.0 1022.0 0.0
21/08:00am 13.1 12.8 8.8 75 2.2 CALM 0 2 0 1 1021.8 1021.8 0.0
21/07:30am 9.5 8.6 6.2 80 1.5 CALM 0 0 0 0 1021.7 1021.7 0.0
21/07:00am 8.5 7.2 6.0 84 1.1 WNW 2 4 1 2 1021.4 1021.4 0.0
21/06:30am 7.3 5.6 4.1 80 1.4 W 2 4 1 2 1020.8 1020.8 0.0
21/06:00am 8.6 6.6 4.6 76 1.8 WSW 4 6 2 3 1020.3 1020.3 0.0
21/05:30am 7.6 6.2 5.4 86 1.0 WSW 2 6 1 3 1019.9 1019.9 0.0
21/05:00am 7.4 6.3 5.0 85 1.1 CALM 0 0 0 0 1019.6 1019.6 0.0
21/04:30am 7.6 6.5 5.1 84 1.1 CALM 0 0 0 0 1019.3 1019.3 0.0
21/04:00am 8.2 7.2 5.7 84 1.1 CALM 0 0 0 0 1019.3 1019.3 0.0
21/03:30am 8.2 7.4 6.3 88 0.9 CALM 0 0 0 0 1019.4 1019.4 0.0
21/03:00am 8.8 7.6 6.3 84 1.1 SSW 2 4 1 2 1019.6 1019.6 0.0
21/02:30am 9.0 7.6 5.4 78 1.6 SSW 2 6 1 3 1019.6 1019.6 0.0
21/02:00am 8.7 7.4 5.8 82 1.3 SW 2 4 1 2 1019.7 1019.7 0.0
21/01:30am 8.7 7.6 6.7 87 0.9 WSW 2 4 1 2 1020.2 1020.2 0.0
21/01:00am 8.1 7.1 5.6 84 1.1 CALM 0 0 0 0 1020.3 1020.3 0.0
21/12:30am 8.3 7.3 5.6 83 1.2 CALM 0 0 0 0 1020.5 1020.5 0.0
21/12:00am 8.1 7.0 4.9 80 1.4 CALM 0 0 0 0 1020.7 1020.7 0.0
 
Date/Time
EST
Temp
°C
App
Temp
°C
Dew
Point
°C
Rel
Hum
%
Delta-T
°C
Wind Press
QNH
hPa
Press
MSL
hPa
Rain since
9am
mm
Dir  Spd
km/h
Gust
km/h
Spd
kts
Gust
kts
20/11:30pm 8.7 7.4 5.8 82 1.3 NW 2 4 1 2 1020.7 1020.7 0.0
20/11:00pm 9.4 8.4 5.6 77 1.7 CALM 0 0 0 0 1020.6 1020.6 0.0
20/10:30pm 9.0 7.8 4.6 74 2.0 CALM 0 0 0 0 1020.9 1020.9 0.0
20/10:00pm 9.8 8.8 5.4 74 2.0 CALM 0 0 0 0 1021.0 1021.0 0.0
20/09:30pm 9.6 8.3 4.0 68 2.5 CALM 0 0 0 0 1020.8 1020.8 0.0
20/09:00pm 10.4 9.2 4.5 67 2.6 CALM 0 0 0 0 1020.8 1020.8 0.0
20/08:30pm 11.2 9.9 4.2 62 3.1 CALM 0 0 0 0 1020.7 1020.7 0.0
20/08:00pm 11.1 9.7 3.4 59 3.4 CALM 0 0 0 0 1020.7 1020.7 0.0
20/07:30pm 11.5 10.1 3.3 57 3.6 CALM 0 4 0 2 1020.5 1020.5 0.0
20/07:00pm 12.6 10.7 3.0 52 4.2 SSW 2 4 1 2 1020.1 1020.1 0.0
20/06:30pm 12.9 11.3 2.2 48 4.7 CALM 0 0 0 0 1019.7 1019.7 0.0
20/06:00pm 15.2 13.1 1.7 40 5.9 S 2 4 1 2 1019.2 1019.2 0.0
20/05:30pm 16.4 13.8 0.9 35 6.8 SE 4 7 2 4 1019.1 1019.1 0.0
20/05:00pm 17.7 14.6 0.4 31 7.5 E 6 9 3 5 1018.6 1018.6 0.0
20/04:30pm 18.6 14.9 0.2 29 8.1 E 9 20 5 11 1018.3 1018.3 0.0
20/04:00pm 19.6 16.2 -0.4 26 8.7 E 7 15 4 8 1017.9 1017.9 0.0
20/03:30pm 20.2 16.5 -2.8 21 9.6 ESE 7 11 4 6 1017.6 1017.6 0.0
20/03:00pm 20.2 16.1 -3.4 20 9.8 E 9 20 5 11 1017.6 1017.6 0.0
20/02:30pm 20.6 16.1 -3.1 20 9.9 ESE 11 19 6 10 1017.7 1017.7 0.0
20/02:00pm 20.8 17.2 -3.6 19 10.1 W 6 11 3 6 1017.8 1017.8 0.0
20/01:30pm 20.6 16.1 -3.1 20 9.9 SW 11 24 6 13 1018.0 1018.0 0.0
20/01:00pm 19.9 15.8 -3.0 21 9.5 E 9 17 5 9 1018.3 1018.3 0.0
20/12:30pm 19.8 16.3 -2.5 22 9.4 N 6 9 3 5 1018.7 1018.7 0.0
20/12:00pm 18.7 15.1 -3.4 22 9.0 SE 6 15 3 8 1019.3 1019.3 0.0
20/11:30am 18.2 14.5 -2.7 24 8.6 ESE 7 15 4 8 1019.9 1019.9 0.0
20/11:00am 18.5 15.1 -2.4 24 8.7 SSE 6 15 3 8 1020.4 1020.4 0.0
20/10:30am 17.4 13.6 -3.4 24 8.4 SSW 7 15 4 8 1020.6 1020.6 0.0
20/10:00am 17.4 13.3 -3.4 24 8.3 WSW 9 22 5 12 1020.7 1020.7 0.0
20/09:30am 17.5 14.4 -2.7 25 8.3 W 4 15 2 8 1020.6 1020.6 0.0
20/09:00am 16.6 12.8 -4.0 24 8.1 SSW 7 20 4 11 1020.8 1020.8 0.0
20/08:30am 15.8 11.8 -5.3 23 8.0 SSW 7 15 4 8 1020.7 1020.7 0.0
20/08:00am 14.7 10.8 -5.1 25 7.4 SW 7 15 4 8 1020.5 1020.5 0.0
20/07:30am 13.4 9.4 -5.7 26 7.0 SW 7 13 4 7 1020.2 1020.2 0.0
20/07:00am 12.3 9.2 -6.1 27 6.6 SW 2 9 1 5 1019.7 1019.7 0.0
20/06:30am 11.2 7.8 -5.7 30 6.0 SW 4 9 2 5 1019.2 1019.2 0.0
20/06:00am 10.7 6.8 -6.1 30 5.9 WSW 6 13 3 7 1018.9 1018.9 0.0
20/05:30am 10.7 6.7 -6.1 30 5.9 SW 7 13 4 7 1018.5 1018.5 0.0
20/05:00am 10.8 6.8 -6.1 30 5.9 WSW 7 13 4 7 1018.0 1018.0 0.0
20/04:30am 11.0 6.9 -6.3 29 6.1 WSW 7 13 4 7 1017.5 1017.5 0.0
20/04:00am 10.7 6.8 -6.1 30 5.9 WSW 6 9 3 5 1017.3 1017.2 0.0
20/03:30am 10.5 7.0 -5.9 31 5.8 SSW 4 15 2 8 1017.4 1017.4 0.0
20/03:00am 11.1 7.3 -5.8 30 6.0 SSW 6 13 3 7 1017.4 1017.4 0.0
20/02:30am 10.7 7.6 -5.7 31 5.8 S 2 4 1 2 1017.4 1017.4 0.0
20/02:00am 11.9 8.1 -6.0 28 6.4 SSW 6 17 3 9 1017.2 1017.1 0.0
20/01:30am 11.7 7.6 -6.2 28 6.4 SW 7 15 4 8 1017.6 1017.6 0.0
20/01:00am 11.8 7.9 -6.1 28 6.4 SW 6 17 3 9 1017.9 1017.9 0.0
20/12:30am 12.1 8.0 -6.3 27 6.6 WSW 7 13 4 7 1018.0 1018.0 0.0
20/12:00am 12.6 8.7 -6.4 26 6.8 W 6 20 3 11 1018.2 1018.2 0.0
 
Date/Time
EST
Temp
°C
App
Temp
°C
Dew
Point
°C
Rel
Hum
%
Delta-T
°C
Wind Press
QNH
hPa
Press
MSL
hPa
Rain since
9am
mm
Dir  Spd
km/h
Gust
km/h
Spd
kts
Gust
kts
19/11:30pm 13.1 9.2 -7.0 24 7.1 W 6 15 3 8 1018.3 1018.3 0.0

Latest Capital City Observations: Canberra | Sydney | Melbourne | Brisbane | Adelaide | Perth | Hobart | Darwin

Other Formats:

Comma delimited format used in spreadsheet applications
http://www.bom.gov.au/fwo/IDQ60901/IDQ60901.95572.axf

JavaScript Object Notation format (JSON) in row-major order
http://www.bom.gov.au/fwo/IDQ60901/IDQ60901.95572.json